sensor_id;sensor_type;location;lat;lon;timestamp;P1;durP1;ratioP1;P2;durP2;ratioP2
37077;SDS011;22989;55.998;37.212;2022-11-20T00:00:37;29.40;;;13.85;;
37077;SDS011;22989;55.998;37.212;2022-11-20T00:03:03;18.10;;;10.10;;
37077;SDS011;22989;55.998;37.212;2022-11-20T00:05:28;27.77;;;11.07;;
37077;SDS011;22989;55.998;37.212;2022-11-20T00:07:54;21.95;;;11.93;;
37077;SDS011;22989;55.998;37.212;2022-11-20T00:10:19;16.23;;;7.28;;
37077;SDS011;22989;55.998;37.212;2022-11-20T00:12:44;24.63;;;10.70;;
37077;SDS011;22989;55.998;37.212;2022-11-20T00:15:10;23.38;;;13.13;;
37077;SDS011;22989;55.998;37.212;2022-11-20T00:17:35;18.90;;;10.18;;
37077;SDS011;22989;55.998;37.212;2022-11-20T00:20:01;19.35;;;7.43;;
37077;SDS011;22989;55.998;37.212;2022-11-20T00:22:26;18.98;;;9.77;;
37077;SDS011;22989;55.998;37.212;2022-11-20T00:24:52;16.20;;;7.60;;
37077;SDS011;22989;55.998;37.212;2022-11-20T00:27:17;21.17;;;9.40;;
37077;SDS011;22989;55.998;37.212;2022-11-20T00:29:43;18.13;;;8.43;;
37077;SDS011;22989;55.998;37.212;2022-11-20T00:32:08;15.68;;;7.07;;
37077;SDS011;22989;55.998;37.212;2022-11-20T00:34:34;24.17;;;14.23;;
37077;SDS011;22989;55.998;37.212;2022-11-20T00:36:59;17.67;;;8.75;;
37077;SDS011;22989;55.998;37.212;2022-11-20T00:39:24;15.52;;;8.02;;
37077;SDS011;22989;55.998;37.212;2022-11-20T00:41:50;21.77;;;10.63;;
37077;SDS011;22989;55.998;37.212;2022-11-20T00:44:15;21.55;;;10.20;;
37077;SDS011;22989;55.998;37.212;2022-11-20T00:46:41;18.95;;;8.73;;
37077;SDS011;22989;55.998;37.212;2022-11-20T00:49:06;14.15;;;6.68;;
37077;SDS011;22989;55.998;37.212;2022-11-20T00:51:32;29.33;;;13.45;;
37077;SDS011;22989;55.998;37.212;2022-11-20T00:53:57;31.25;;;15.23;;
37077;SDS011;22989;55.998;37.212;2022-11-20T00:56:25;31.13;;;17.23;;
37077;SDS011;22989;55.998;37.212;2022-11-20T00:58:50;16.58;;;8.52;;
37077;SDS011;22989;55.998;37.212;2022-11-20T01:01:23;14.18;;;8.05;;
37077;SDS011;22989;55.998;37.212;2022-11-20T01:03:50;16.85;;;8.50;;
37077;SDS011;22989;55.998;37.212;2022-11-20T01:08:41;17.42;;;9.32;;
37077;SDS011;22989;55.998;37.212;2022-11-20T01:11:09;21.08;;;9.70;;
37077;SDS011;22989;55.998;37.212;2022-11-20T01:13:35;18.85;;;8.85;;
37077;SDS011;22989;55.998;37.212;2022-11-20T01:16:04;22.88;;;13.02;;
37077;SDS011;22989;55.998;37.212;2022-11-20T01:18:30;17.27;;;9.60;;
37077;SDS011;22989;55.998;37.212;2022-11-20T01:20:55;16.23;;;8.40;;
37077;SDS011;22989;55.998;37.212;2022-11-20T01:23:20;18.50;;;10.10;;
37077;SDS011;22989;55.998;37.212;2022-11-20T01:25:46;20.23;;;10.25;;
37077;SDS011;22989;55.998;37.212;2022-11-20T01:28:11;16.20;;;8.75;;
37077;SDS011;22989;55.998;37.212;2022-11-20T01:30:37;19.30;;;11.18;;
37077;SDS011;22989;55.998;37.212;2022-11-20T01:33:02;17.20;;;9.18;;
37077;SDS011;22989;55.998;37.212;2022-11-20T01:35:28;19.98;;;11.23;;
37077;SDS011;22989;55.998;37.212;2022-11-20T01:37:53;16.77;;;8.68;;
37077;SDS011;22989;55.998;37.212;2022-11-20T01:40:19;19.02;;;10.93;;
37077;SDS011;22989;55.998;37.212;2022-11-20T01:42:47;22.88;;;11.60;;
37077;SDS011;22989;55.998;37.212;2022-11-20T01:46:12;18.52;;;11.13;;
37077;SDS011;22989;55.998;37.212;2022-11-20T01:48:32;13.32;;;7.63;;
37077;SDS011;22989;55.998;37.212;2022-11-20T01:50:58;13.02;;;7.15;;
37077;SDS011;22989;55.998;37.212;2022-11-20T01:53:25;12.30;;;6.95;;
37077;SDS011;22989;55.998;37.212;2022-11-20T01:55:53;15.63;;;7.50;;
37077;SDS011;22989;55.998;37.212;2022-11-20T01:58:22;16.42;;;8.90;;
37077;SDS011;22989;55.998;37.212;2022-11-20T02:00:49;21.48;;;12.25;;
37077;SDS011;22989;55.998;37.212;2022-11-20T02:03:16;15.73;;;8.32;;
37077;SDS011;22989;55.998;37.212;2022-11-20T02:05:44;13.25;;;7.72;;
37077;SDS011;22989;55.998;37.212;2022-11-20T02:08:10;14.18;;;7.43;;
37077;SDS011;22989;55.998;37.212;2022-11-20T02:10:36;13.75;;;8.05;;
37077;SDS011;22989;55.998;37.212;2022-11-20T02:13:02;13.88;;;7.53;;
37077;SDS011;22989;55.998;37.212;2022-11-20T02:15:47;14.88;;;7.45;;
37077;SDS011;22989;55.998;37.212;2022-11-20T02:18:13;16.83;;;8.13;;
37077;SDS011;22989;55.998;37.212;2022-11-20T02:20:40;16.90;;;8.05;;
37077;SDS011;22989;55.998;37.212;2022-11-20T02:25:35;19.90;;;10.20;;
37077;SDS011;22989;55.998;37.212;2022-11-20T02:28:02;13.05;;;6.70;;
37077;SDS011;22989;55.998;37.212;2022-11-20T02:30:27;18.30;;;8.38;;
37077;SDS011;22989;55.998;37.212;2022-11-20T02:32:53;12.55;;;7.20;;
37077;SDS011;22989;55.998;37.212;2022-11-20T02:37:44;15.35;;;8.02;;
37077;SDS011;22989;55.998;37.212;2022-11-20T02:40:10;14.80;;;8.25;;
37077;SDS011;22989;55.998;37.212;2022-11-20T02:42:36;16.50;;;8.57;;
37077;SDS011;22989;55.998;37.212;2022-11-20T02:45:02;15.05;;;7.55;;
37077;SDS011;22989;55.998;37.212;2022-11-20T02:47:28;14.90;;;8.40;;
37077;SDS011;22989;55.998;37.212;2022-11-20T02:49:53;17.08;;;7.88;;
37077;SDS011;22989;55.998;37.212;2022-11-20T02:52:19;15.35;;;8.20;;
37077;SDS011;22989;55.998;37.212;2022-11-20T02:54:44;18.60;;;8.13;;
37077;SDS011;22989;55.998;37.212;2022-11-20T02:57:10;14.13;;;8.18;;
37077;SDS011;22989;55.998;37.212;2022-11-20T02:59:35;17.60;;;9.85;;
37077;SDS011;22989;55.998;37.212;2022-11-20T03:02:01;14.73;;;7.80;;
37077;SDS011;22989;55.998;37.212;2022-11-20T03:04:26;15.23;;;7.80;;
37077;SDS011;22989;55.998;37.212;2022-11-20T03:06:51;16.88;;;8.82;;
37077;SDS011;22989;55.998;37.212;2022-11-20T03:09:17;15.00;;;7.70;;
37077;SDS011;22989;55.998;37.212;2022-11-20T03:11:42;15.85;;;7.43;;
37077;SDS011;22989;55.998;37.212;2022-11-20T03:14:08;14.95;;;7.40;;
37077;SDS011;22989;55.998;37.212;2022-11-20T03:16:34;17.13;;;8.50;;
37077;SDS011;22989;55.998;37.212;2022-11-20T03:18:59;19.05;;;9.40;;
37077;SDS011;22989;55.998;37.212;2022-11-20T03:21:25;18.15;;;8.98;;
37077;SDS011;22989;55.998;37.212;2022-11-20T03:23:50;17.60;;;9.07;;
37077;SDS011;22989;55.998;37.212;2022-11-20T03:26:17;15.52;;;7.40;;
37077;SDS011;22989;55.998;37.212;2022-11-20T03:28:50;16.50;;;9.30;;
37077;SDS011;22989;55.998;37.212;2022-11-20T03:31:16;17.08;;;8.93;;
37077;SDS011;22989;55.998;37.212;2022-11-20T03:33:42;17.02;;;8.13;;
37077;SDS011;22989;55.998;37.212;2022-11-20T03:36:08;16.90;;;8.05;;
37077;SDS011;22989;55.998;37.212;2022-11-20T03:38:34;15.55;;;8.95;;
37077;SDS011;22989;55.998;37.212;2022-11-20T03:41:01;13.85;;;6.85;;
37077;SDS011;22989;55.998;37.212;2022-11-20T03:43:27;10.38;;;5.85;;
37077;SDS011;22989;55.998;37.212;2022-11-20T03:45:53;14.75;;;9.10;;
37077;SDS011;22989;55.998;37.212;2022-11-20T03:48:18;18.35;;;8.48;;
37077;SDS011;22989;55.998;37.212;2022-11-20T03:50:44;12.68;;;7.28;;
37077;SDS011;22989;55.998;37.212;2022-11-20T03:53:09;16.95;;;9.07;;
37077;SDS011;22989;55.998;37.212;2022-11-20T03:55:34;15.70;;;7.63;;
37077;SDS011;22989;55.998;37.212;2022-11-20T03:58:00;15.27;;;7.57;;
37077;SDS011;22989;55.998;37.212;2022-11-20T04:00:25;12.32;;;6.90;;
37077;SDS011;22989;55.998;37.212;2022-11-20T04:02:51;14.57;;;7.63;;
37077;SDS011;22989;55.998;37.212;2022-11-20T04:05:16;13.57;;;7.15;;
37077;SDS011;22989;55.998;37.212;2022-11-20T04:07:42;13.57;;;7.07;;
37077;SDS011;22989;55.998;37.212;2022-11-20T04:10:07;14.88;;;8.23;;
37077;SDS011;22989;55.998;37.212;2022-11-20T04:12:33;13.57;;;7.22;;
37077;SDS011;22989;55.998;37.212;2022-11-20T04:14:58;12.40;;;6.38;;
37077;SDS011;22989;55.998;37.212;2022-11-20T04:17:24;10.38;;;6.47;;
37077;SDS011;22989;55.998;37.212;2022-11-20T04:19:49;12.98;;;6.88;;
37077;SDS011;22989;55.998;37.212;2022-11-20T04:22:15;18.08;;;8.00;;
37077;SDS011;22989;55.998;37.212;2022-11-20T04:24:40;15.40;;;7.78;;
37077;SDS011;22989;55.998;37.212;2022-11-20T04:27:06;17.23;;;8.07;;
37077;SDS011;22989;55.998;37.212;2022-11-20T04:29:31;16.85;;;9.18;;
37077;SDS011;22989;55.998;37.212;2022-11-20T04:31:57;14.20;;;7.75;;
37077;SDS011;22989;55.998;37.212;2022-11-20T04:34:22;15.80;;;7.75;;
37077;SDS011;22989;55.998;37.212;2022-11-20T04:36:48;17.10;;;7.85;;
37077;SDS011;22989;55.998;37.212;2022-11-20T04:39:13;17.13;;;6.82;;
37077;SDS011;22989;55.998;37.212;2022-11-20T04:41:40;13.88;;;7.30;;
37077;SDS011;22989;55.998;37.212;2022-11-20T04:44:05;13.80;;;7.18;;
37077;SDS011;22989;55.998;37.212;2022-11-20T04:46:32;14.05;;;8.50;;
37077;SDS011;22989;55.998;37.212;2022-11-20T04:48:58;16.02;;;8.27;;
37077;SDS011;22989;55.998;37.212;2022-11-20T04:51:24;16.10;;;8.25;;
37077;SDS011;22989;55.998;37.212;2022-11-20T04:53:49;15.93;;;8.55;;
37077;SDS011;22989;55.998;37.212;2022-11-20T04:56:15;15.63;;;7.63;;
37077;SDS011;22989;55.998;37.212;2022-11-20T04:58:41;18.75;;;7.57;;
37077;SDS011;22989;55.998;37.212;2022-11-20T05:01:07;13.75;;;7.60;;
37077;SDS011;22989;55.998;37.212;2022-11-20T05:03:34;15.85;;;7.80;;
37077;SDS011;22989;55.998;37.212;2022-11-20T05:06:00;13.05;;;7.43;;
37077;SDS011;22989;55.998;37.212;2022-11-20T05:08:26;16.15;;;8.55;;
37077;SDS011;22989;55.998;37.212;2022-11-20T05:10:51;13.40;;;8.02;;
37077;SDS011;22989;55.998;37.212;2022-11-20T05:13:17;17.45;;;9.48;;
37077;SDS011;22989;55.998;37.212;2022-11-20T05:15:42;18.20;;;8.23;;
37077;SDS011;22989;55.998;37.212;2022-11-20T05:18:08;18.05;;;8.80;;
37077;SDS011;22989;55.998;37.212;2022-11-20T05:20:33;19.23;;;8.32;;
37077;SDS011;22989;55.998;37.212;2022-11-20T05:22:58;17.20;;;8.75;;
37077;SDS011;22989;55.998;37.212;2022-11-20T05:25:24;16.20;;;7.85;;
37077;SDS011;22989;55.998;37.212;2022-11-20T05:27:49;16.27;;;9.45;;
37077;SDS011;22989;55.998;37.212;2022-11-20T05:30:15;18.55;;;9.90;;
37077;SDS011;22989;55.998;37.212;2022-11-20T05:32:40;15.35;;;7.82;;
37077;SDS011;22989;55.998;37.212;2022-11-20T05:35:06;18.98;;;10.95;;
37077;SDS011;22989;55.998;37.212;2022-11-20T05:37:32;21.85;;;10.57;;
37077;SDS011;22989;55.998;37.212;2022-11-20T05:39:57;22.23;;;12.63;;
37077;SDS011;22989;55.998;37.212;2022-11-20T05:42:23;19.35;;;8.80;;
37077;SDS011;22989;55.998;37.212;2022-11-20T05:45:01;18.58;;;10.25;;
37077;SDS011;22989;55.998;37.212;2022-11-20T05:47:27;19.48;;;10.23;;
37077;SDS011;22989;55.998;37.212;2022-11-20T05:49:53;22.15;;;11.00;;
37077;SDS011;22989;55.998;37.212;2022-11-20T05:52:19;25.92;;;11.90;;
37077;SDS011;22989;55.998;37.212;2022-11-20T05:54:44;24.75;;;11.70;;
37077;SDS011;22989;55.998;37.212;2022-11-20T05:57:10;33.75;;;16.48;;
37077;SDS011;22989;55.998;37.212;2022-11-20T05:59:35;34.25;;;14.60;;
37077;SDS011;22989;55.998;37.212;2022-11-20T06:02:01;29.05;;;12.57;;
37077;SDS011;22989;55.998;37.212;2022-11-20T06:04:26;29.20;;;13.15;;
37077;SDS011;22989;55.998;37.212;2022-11-20T06:06:52;24.67;;;11.55;;
37077;SDS011;22989;55.998;37.212;2022-11-20T06:09:17;24.55;;;11.68;;
37077;SDS011;22989;55.998;37.212;2022-11-20T06:11:42;21.42;;;11.65;;
37077;SDS011;22989;55.998;37.212;2022-11-20T06:14:08;26.60;;;11.73;;
37077;SDS011;22989;55.998;37.212;2022-11-20T06:16:33;26.30;;;13.32;;
37077;SDS011;22989;55.998;37.212;2022-11-20T06:18:59;19.45;;;9.57;;
37077;SDS011;22989;55.998;37.212;2022-11-20T06:21:24;24.20;;;11.60;;
37077;SDS011;22989;55.998;37.212;2022-11-20T06:23:50;25.90;;;13.13;;
37077;SDS011;22989;55.998;37.212;2022-11-20T06:26:19;22.77;;;11.68;;
37077;SDS011;22989;55.998;37.212;2022-11-20T06:28:45;23.70;;;11.80;;
37077;SDS011;22989;55.998;37.212;2022-11-20T06:31:12;24.88;;;12.63;;
37077;SDS011;22989;55.998;37.212;2022-11-20T06:33:38;25.60;;;11.85;;
37077;SDS011;22989;55.998;37.212;2022-11-20T06:36:04;23.70;;;12.93;;
37077;SDS011;22989;55.998;37.212;2022-11-20T06:38:30;25.15;;;11.38;;
37077;SDS011;22989;55.998;37.212;2022-11-20T06:40:55;23.65;;;13.23;;
37077;SDS011;22989;55.998;37.212;2022-11-20T06:43:21;22.65;;;11.68;;
37077;SDS011;22989;55.998;37.212;2022-11-20T06:45:51;26.10;;;13.07;;
37077;SDS011;22989;55.998;37.212;2022-11-20T06:48:17;26.35;;;13.07;;
37077;SDS011;22989;55.998;37.212;2022-11-20T06:50:42;23.80;;;12.60;;
37077;SDS011;22989;55.998;37.212;2022-11-20T06:53:08;21.60;;;11.77;;
37077;SDS011;22989;55.998;37.212;2022-11-20T06:55:33;22.48;;;11.43;;
37077;SDS011;22989;55.998;37.212;2022-11-20T06:57:58;23.42;;;12.07;;
37077;SDS011;22989;55.998;37.212;2022-11-20T07:00:24;18.52;;;9.98;;
37077;SDS011;22989;55.998;37.212;2022-11-20T07:02:50;26.75;;;12.60;;
37077;SDS011;22989;55.998;37.212;2022-11-20T07:05:15;21.33;;;11.25;;
37077;SDS011;22989;55.998;37.212;2022-11-20T07:07:41;23.13;;;13.30;;
37077;SDS011;22989;55.998;37.212;2022-11-20T07:10:06;23.20;;;11.30;;
37077;SDS011;22989;55.998;37.212;2022-11-20T07:12:32;24.65;;;11.40;;
37077;SDS011;22989;55.998;37.212;2022-11-20T07:14:57;25.77;;;13.85;;
37077;SDS011;22989;55.998;37.212;2022-11-20T07:17:23;26.73;;;13.95;;
37077;SDS011;22989;55.998;37.212;2022-11-20T07:19:48;24.98;;;11.98;;
37077;SDS011;22989;55.998;37.212;2022-11-20T07:22:14;25.35;;;13.20;;
37077;SDS011;22989;55.998;37.212;2022-11-20T07:24:39;24.13;;;11.82;;
37077;SDS011;22989;55.998;37.212;2022-11-20T07:27:05;23.88;;;11.73;;
37077;SDS011;22989;55.998;37.212;2022-11-20T07:29:30;27.88;;;11.35;;
37077;SDS011;22989;55.998;37.212;2022-11-20T07:31:56;31.00;;;12.25;;
37077;SDS011;22989;55.998;37.212;2022-11-20T07:34:22;25.48;;;11.82;;
37077;SDS011;22989;55.998;37.212;2022-11-20T07:36:47;23.20;;;11.80;;
37077;SDS011;22989;55.998;37.212;2022-11-20T07:39:13;21.90;;;11.13;;
37077;SDS011;22989;55.998;37.212;2022-11-20T07:41:38;24.23;;;12.00;;
37077;SDS011;22989;55.998;37.212;2022-11-20T07:44:04;32.40;;;14.70;;
37077;SDS011;22989;55.998;37.212;2022-11-20T07:46:29;21.63;;;11.95;;
37077;SDS011;22989;55.998;37.212;2022-11-20T07:48:54;27.02;;;12.65;;
37077;SDS011;22989;55.998;37.212;2022-11-20T07:51:20;23.98;;;11.65;;
37077;SDS011;22989;55.998;37.212;2022-11-20T07:53:45;24.77;;;13.15;;
37077;SDS011;22989;55.998;37.212;2022-11-20T07:56:11;23.77;;;12.90;;
37077;SDS011;22989;55.998;37.212;2022-11-20T07:58:36;31.17;;;12.38;;
37077;SDS011;22989;55.998;37.212;2022-11-20T08:01:03;25.15;;;12.98;;
37077;SDS011;22989;55.998;37.212;2022-11-20T08:03:29;29.42;;;14.27;;
37077;SDS011;22989;55.998;37.212;2022-11-20T08:05:54;23.83;;;12.90;;
37077;SDS011;22989;55.998;37.212;2022-11-20T08:08:23;22.25;;;11.43;;
37077;SDS011;22989;55.998;37.212;2022-11-20T08:10:48;22.23;;;11.32;;
37077;SDS011;22989;55.998;37.212;2022-11-20T08:13:14;24.58;;;12.43;;
37077;SDS011;22989;55.998;37.212;2022-11-20T08:16:15;24.58;;;12.30;;
37077;SDS011;22989;55.998;37.212;2022-11-20T08:18:40;25.75;;;11.93;;
37077;SDS011;22989;55.998;37.212;2022-11-20T08:21:05;25.45;;;13.18;;
37077;SDS011;22989;55.998;37.212;2022-11-20T08:23:31;24.35;;;12.35;;
37077;SDS011;22989;55.998;37.212;2022-11-20T08:25:56;24.67;;;12.93;;
37077;SDS011;22989;55.998;37.212;2022-11-20T08:28:22;24.45;;;13.13;;
37077;SDS011;22989;55.998;37.212;2022-11-20T08:30:48;26.70;;;13.23;;
37077;SDS011;22989;55.998;37.212;2022-11-20T08:33:14;29.83;;;14.82;;
37077;SDS011;22989;55.998;37.212;2022-11-20T08:35:40;29.23;;;15.00;;
37077;SDS011;22989;55.998;37.212;2022-11-20T08:38:06;26.05;;;13.65;;
37077;SDS011;22989;55.998;37.212;2022-11-20T08:40:32;27.35;;;14.05;;
37077;SDS011;22989;55.998;37.212;2022-11-20T08:42:58;23.15;;;12.25;;
37077;SDS011;22989;55.998;37.212;2022-11-20T08:45:23;26.05;;;14.20;;
37077;SDS011;22989;55.998;37.212;2022-11-20T08:47:49;20.08;;;10.30;;
37077;SDS011;22989;55.998;37.212;2022-11-20T08:50:15;21.35;;;10.43;;
37077;SDS011;22989;55.998;37.212;2022-11-20T08:52:41;26.52;;;13.57;;
37077;SDS011;22989;55.998;37.212;2022-11-20T08:55:07;23.75;;;12.05;;
37077;SDS011;22989;55.998;37.212;2022-11-20T08:57:33;25.50;;;13.13;;
37077;SDS011;22989;55.998;37.212;2022-11-20T08:59:58;27.98;;;14.27;;
37077;SDS011;22989;55.998;37.212;2022-11-20T09:02:24;26.23;;;13.38;;
37077;SDS011;22989;55.998;37.212;2022-11-20T09:04:49;33.17;;;14.25;;
37077;SDS011;22989;55.998;37.212;2022-11-20T09:07:15;28.73;;;14.70;;
37077;SDS011;22989;55.998;37.212;2022-11-20T09:09:40;28.98;;;14.55;;
37077;SDS011;22989;55.998;37.212;2022-11-20T09:12:06;28.17;;;13.88;;
37077;SDS011;22989;55.998;37.212;2022-11-20T09:14:31;28.33;;;14.68;;
37077;SDS011;22989;55.998;37.212;2022-11-20T09:16:57;28.38;;;14.63;;
37077;SDS011;22989;55.998;37.212;2022-11-20T09:19:23;28.75;;;14.80;;
37077;SDS011;22989;55.998;37.212;2022-11-20T09:21:48;26.92;;;14.45;;
37077;SDS011;22989;55.998;37.212;2022-11-20T09:24:14;31.95;;;15.07;;
37077;SDS011;22989;55.998;37.212;2022-11-20T09:26:39;33.80;;;15.82;;
37077;SDS011;22989;55.998;37.212;2022-11-20T09:29:05;31.35;;;14.50;;
37077;SDS011;22989;55.998;37.212;2022-11-20T09:31:31;29.83;;;14.25;;
37077;SDS011;22989;55.998;37.212;2022-11-20T09:33:57;28.92;;;14.25;;
37077;SDS011;22989;55.998;37.212;2022-11-20T09:36:22;26.55;;;13.93;;
37077;SDS011;22989;55.998;37.212;2022-11-20T09:38:48;31.33;;;14.93;;
37077;SDS011;22989;55.998;37.212;2022-11-20T09:41:59;36.45;;;15.55;;
37077;SDS011;22989;55.998;37.212;2022-11-20T09:51:50;35.80;;;16.52;;
37077;SDS011;22989;55.998;37.212;2022-11-20T09:56:44;34.38;;;15.93;;
37077;SDS011;22989;55.998;37.212;2022-11-20T09:59:33;34.08;;;16.25;;
37077;SDS011;22989;55.998;37.212;2022-11-20T10:01:55;35.03;;;16.15;;
37077;SDS011;22989;55.998;37.212;2022-11-20T10:04:21;33.38;;;16.27;;
37077;SDS011;22989;55.998;37.212;2022-11-20T10:06:51;41.47;;;15.65;;
37077;SDS011;22989;55.998;37.212;2022-11-20T10:09:27;34.75;;;16.30;;
37077;SDS011;22989;55.998;37.212;2022-11-20T10:12:05;42.47;;;16.73;;
37077;SDS011;22989;55.998;37.212;2022-11-20T10:24:56;32.58;;;15.60;;
37077;SDS011;22989;55.998;37.212;2022-11-20T10:32:32;36.80;;;15.45;;
37077;SDS011;22989;55.998;37.212;2022-11-20T10:35:06;32.72;;;15.57;;
37077;SDS011;22989;55.998;37.212;2022-11-20T10:37:35;36.38;;;16.15;;
37077;SDS011;22989;55.998;37.212;2022-11-20T10:40:18;39.05;;;16.63;;
37077;SDS011;22989;55.998;37.212;2022-11-20T10:42:46;35.53;;;16.77;;
37077;SDS011;22989;55.998;37.212;2022-11-20T10:45:56;34.75;;;15.98;;
37077;SDS011;22989;55.998;37.212;2022-11-20T10:50:32;37.80;;;15.18;;
37077;SDS011;22989;55.998;37.212;2022-11-20T11:00:45;31.08;;;14.60;;
37077;SDS011;22989;55.998;37.212;2022-11-20T11:03:26;29.25;;;13.10;;
37077;SDS011;22989;55.998;37.212;2022-11-20T11:08:28;27.85;;;12.23;;
37077;SDS011;22989;55.998;37.212;2022-11-20T11:10:59;23.30;;;12.13;;
37077;SDS011;22989;55.998;37.212;2022-11-20T11:13:27;24.90;;;11.55;;
37077;SDS011;22989;55.998;37.212;2022-11-20T11:15:53;26.45;;;11.85;;
37077;SDS011;22989;55.998;37.212;2022-11-20T11:18:29;23.50;;;11.27;;
37077;SDS011;22989;55.998;37.212;2022-11-20T11:20:55;21.17;;;10.90;;
37077;SDS011;22989;55.998;37.212;2022-11-20T11:23:28;20.27;;;10.55;;
37077;SDS011;22989;55.998;37.212;2022-11-20T11:25:58;18.40;;;9.93;;
37077;SDS011;22989;55.998;37.212;2022-11-20T11:28:24;22.25;;;10.18;;
37077;SDS011;22989;55.998;37.212;2022-11-20T11:30:51;16.20;;;10.15;;
37077;SDS011;22989;55.998;37.212;2022-11-20T11:33:27;17.95;;;9.77;;
37077;SDS011;22989;55.998;37.212;2022-11-20T11:35:53;18.13;;;9.80;;
37077;SDS011;22989;55.998;37.212;2022-11-20T11:38:29;17.30;;;9.32;;
37077;SDS011;22989;55.998;37.212;2022-11-20T11:40:55;18.42;;;9.00;;
37077;SDS011;22989;55.998;37.212;2022-11-20T11:43:22;16.95;;;9.85;;
37077;SDS011;22989;55.998;37.212;2022-11-20T11:49:30;16.23;;;9.38;;
37077;SDS011;22989;55.998;37.212;2022-11-20T11:51:50;19.13;;;9.82;;
37077;SDS011;22989;55.998;37.212;2022-11-20T12:00:03;16.10;;;9.57;;
37077;SDS011;22989;55.998;37.212;2022-11-20T12:05:43;18.30;;;10.45;;
37077;SDS011;22989;55.998;37.212;2022-11-20T12:07:45;19.77;;;9.90;;
37077;SDS011;22989;55.998;37.212;2022-11-20T12:10:22;19.20;;;10.20;;
37077;SDS011;22989;55.998;37.212;2022-11-20T12:12:50;23.98;;;10.52;;
37077;SDS011;22989;55.998;37.212;2022-11-20T12:15:21;17.38;;;10.00;;
37077;SDS011;22989;55.998;37.212;2022-11-20T12:17:48;18.92;;;10.70;;
37077;SDS011;22989;55.998;37.212;2022-11-20T12:20:13;19.55;;;9.82;;
37077;SDS011;22989;55.998;37.212;2022-11-20T12:30:25;19.55;;;11.07;;
37077;SDS011;22989;55.998;37.212;2022-11-20T12:49:52;20.88;;;10.32;;
37077;SDS011;22989;55.998;37.212;2022-11-20T12:52:35;21.27;;;10.50;;
37077;SDS011;22989;55.998;37.212;2022-11-20T12:55:16;18.83;;;10.02;;
37077;SDS011;22989;55.998;37.212;2022-11-20T12:57:54;17.85;;;10.30;;
37077;SDS011;22989;55.998;37.212;2022-11-20T13:00:22;21.65;;;11.15;;
37077;SDS011;22989;55.998;37.212;2022-11-20T13:07:58;23.15;;;11.05;;
37077;SDS011;22989;55.998;37.212;2022-11-20T13:12:56;18.27;;;10.77;;
37077;SDS011;22989;55.998;37.212;2022-11-20T13:15:37;23.67;;;10.45;;
37077;SDS011;22989;55.998;37.212;2022-11-20T13:18:07;22.52;;;11.48;;
37077;SDS011;22989;55.998;37.212;2022-11-20T13:20:33;18.80;;;10.10;;
37077;SDS011;22989;55.998;37.212;2022-11-20T13:23:00;19.90;;;11.48;;
37077;SDS011;22989;55.998;37.212;2022-11-20T13:25:26;20.98;;;10.70;;
37077;SDS011;22989;55.998;37.212;2022-11-20T13:27:52;19.42;;;11.18;;
37077;SDS011;22989;55.998;37.212;2022-11-20T13:30:21;17.02;;;11.02;;
37077;SDS011;22989;55.998;37.212;2022-11-20T13:32:51;20.30;;;10.35;;
37077;SDS011;22989;55.998;37.212;2022-11-20T13:35:25;19.40;;;10.63;;
37077;SDS011;22989;55.998;37.212;2022-11-20T13:37:59;18.85;;;10.05;;
37077;SDS011;22989;55.998;37.212;2022-11-20T13:40:25;19.42;;;10.75;;
37077;SDS011;22989;55.998;37.212;2022-11-20T13:48:23;21.63;;;10.93;;
37077;SDS011;22989;55.998;37.212;2022-11-20T13:50:58;19.52;;;10.32;;
37077;SDS011;22989;55.998;37.212;2022-11-20T13:56:03;17.45;;;10.55;;
37077;SDS011;22989;55.998;37.212;2022-11-20T14:00:58;17.75;;;9.93;;
37077;SDS011;22989;55.998;37.212;2022-11-20T14:03:25;20.58;;;10.30;;
37077;SDS011;22989;55.998;37.212;2022-11-20T14:05:59;18.33;;;9.75;;
37077;SDS011;22989;55.998;37.212;2022-11-20T14:08:31;19.58;;;10.68;;
37077;SDS011;22989;55.998;37.212;2022-11-20T14:11:02;19.30;;;9.95;;
37077;SDS011;22989;55.998;37.212;2022-11-20T14:13:27;19.35;;;9.98;;
37077;SDS011;22989;55.998;37.212;2022-11-20T14:15:56;17.30;;;10.52;;
37077;SDS011;22989;55.998;37.212;2022-11-20T14:18:22;18.17;;;10.57;;
37077;SDS011;22989;55.998;37.212;2022-11-20T14:20:47;18.65;;;10.48;;
37077;SDS011;22989;55.998;37.212;2022-11-20T14:23:22;19.27;;;10.32;;
37077;SDS011;22989;55.998;37.212;2022-11-20T14:25:48;17.65;;;10.07;;
37077;SDS011;22989;55.998;37.212;2022-11-20T14:28:19;18.08;;;10.82;;
37077;SDS011;22989;55.998;37.212;2022-11-20T14:30:47;16.85;;;9.93;;
37077;SDS011;22989;55.998;37.212;2022-11-20T14:33:13;22.92;;;11.27;;
37077;SDS011;22989;55.998;37.212;2022-11-20T14:35:49;19.33;;;10.30;;
37077;SDS011;22989;55.998;37.212;2022-11-20T14:38:16;18.33;;;10.93;;
37077;SDS011;22989;55.998;37.212;2022-11-20T14:40:42;19.40;;;10.73;;
37077;SDS011;22989;55.998;37.212;2022-11-20T14:43:24;21.10;;;10.82;;
37077;SDS011;22989;55.998;37.212;2022-11-20T14:46:00;18.88;;;10.52;;
37077;SDS011;22989;55.998;37.212;2022-11-20T14:48:31;22.02;;;11.43;;
37077;SDS011;22989;55.998;37.212;2022-11-20T14:50:57;22.85;;;11.10;;
37077;SDS011;22989;55.998;37.212;2022-11-20T14:53:23;20.55;;;11.05;;
37077;SDS011;22989;55.998;37.212;2022-11-20T14:55:54;18.25;;;10.48;;
37077;SDS011;22989;55.998;37.212;2022-11-20T14:58:21;20.77;;;11.18;;
37077;SDS011;22989;55.998;37.212;2022-11-20T15:00:54;21.73;;;11.02;;
37077;SDS011;22989;55.998;37.212;2022-11-20T15:03:19;20.33;;;10.77;;
37077;SDS011;22989;55.998;37.212;2022-11-20T15:05:46;21.40;;;11.40;;
37077;SDS011;22989;55.998;37.212;2022-11-20T15:08:13;20.65;;;10.77;;
37077;SDS011;22989;55.998;37.212;2022-11-20T15:10:38;20.60;;;10.80;;
37077;SDS011;22989;55.998;37.212;2022-11-20T15:13:05;22.55;;;11.35;;
37077;SDS011;22989;55.998;37.212;2022-11-20T15:15:32;19.85;;;11.05;;
37077;SDS011;22989;55.998;37.212;2022-11-20T15:18:00;19.27;;;10.70;;
37077;SDS011;22989;55.998;37.212;2022-11-20T15:20:26;20.38;;;10.95;;
37077;SDS011;22989;55.998;37.212;2022-11-20T15:22:52;21.30;;;11.10;;
37077;SDS011;22989;55.998;37.212;2022-11-20T15:25:18;21.17;;;11.18;;
37077;SDS011;22989;55.998;37.212;2022-11-20T15:27:43;17.02;;;9.68;;
37077;SDS011;22989;55.998;37.212;2022-11-20T15:30:16;16.52;;;10.02;;
37077;SDS011;22989;55.998;37.212;2022-11-20T15:32:42;20.08;;;10.57;;
37077;SDS011;22989;55.998;37.212;2022-11-20T15:35:08;20.98;;;11.25;;
37077;SDS011;22989;55.998;37.212;2022-11-20T15:37:33;21.63;;;10.55;;
37077;SDS011;22989;55.998;37.212;2022-11-20T15:39:59;29.77;;;11.45;;
37077;SDS011;22989;55.998;37.212;2022-11-20T15:42:24;27.95;;;13.68;;
37077;SDS011;22989;55.998;37.212;2022-11-20T15:44:50;19.05;;;10.60;;
37077;SDS011;22989;55.998;37.212;2022-11-20T15:47:15;16.90;;;9.75;;
37077;SDS011;22989;55.998;37.212;2022-11-20T15:49:43;18.75;;;10.73;;
37077;SDS011;22989;55.998;37.212;2022-11-20T15:52:09;19.63;;;10.63;;
37077;SDS011;22989;55.998;37.212;2022-11-20T15:54:35;18.27;;;10.57;;